createdAt,value
2016-10-19T00:00:23.915Z,1009.64
2016-10-19T00:01:23.972Z,1009.66
2016-10-19T00:02:23.929Z,1009.67
2016-10-19T00:03:23.935Z,1009.64
2016-10-19T00:04:23.992Z,1009.61
2016-10-19T00:05:23.949Z,1009.61
2016-10-19T00:06:23.956Z,1009.55
2016-10-19T00:07:23.964Z,1009.62
2016-10-19T00:08:23.971Z,1009.62
2016-10-19T00:09:24.327Z,1009.61
2016-10-19T00:10:23.984Z,1009.57
2016-10-19T00:11:23.989Z,1009.57
2016-10-19T00:12:23.997Z,1009.56
2016-10-19T00:13:24.004Z,1009.56
2016-10-19T00:14:24.011Z,1009.58
2016-10-19T00:15:24.017Z,1009.52
2016-10-19T00:16:24.024Z,1009.52
2016-10-19T00:17:24.032Z,1009.48
2016-10-19T00:18:25.140Z,1009.48
2016-10-19T00:19:24.045Z,1009.45
2016-10-19T00:20:24.051Z,1009.48
2016-10-19T00:21:24.060Z,1009.45
2016-10-19T00:22:24.067Z,1009.44
2016-10-19T00:23:24.124Z,1009.43
2016-10-19T00:24:24.079Z,1009.47
2016-10-19T00:25:24.086Z,1009.43
2016-10-19T00:26:24.093Z,1009.42
2016-10-19T00:27:24.099Z,1009.47
2016-10-19T00:28:24.106Z,1009.43
2016-10-19T00:29:24.114Z,1009.41
2016-10-19T00:30:24.120Z,1009.49
2016-10-19T00:31:24.128Z,1009.38
2016-10-19T00:32:24.134Z,1009.37
2016-10-19T00:33:24.142Z,1009.38
2016-10-19T00:34:24.199Z,1009.44
2016-10-19T00:35:24.155Z,1009.37
2016-10-19T00:36:24.162Z,1009.39
2016-10-19T00:37:24.169Z,1009.46
2016-10-19T00:38:24.177Z,1009.51
2016-10-19T00:39:24.182Z,1009.34
2016-10-19T00:40:24.991Z,1009.42
2016-10-19T00:41:24.195Z,1009.41
2016-10-19T00:42:24.204Z,1009.42
2016-10-19T00:43:24.209Z,1009.43
2016-10-19T00:44:24.217Z,1009.38
2016-10-19T00:45:24.224Z,1009.41
2016-10-19T00:46:24.231Z,1009.4
2016-10-19T00:47:24.237Z,1009.39
2016-10-19T00:48:24.244Z,1009.34
2016-10-19T00:49:24.251Z,1009.34
2016-10-19T00:50:24.258Z,1009.35
2016-10-19T00:51:24.265Z,1009.32
2016-10-19T00:52:24.271Z,1009.34
2016-10-19T00:53:24.279Z,1009.3
2016-10-19T00:54:24.335Z,1009.33
2016-10-19T00:55:25.143Z,1009.34
2016-10-19T00:56:24.299Z,1009.41
2016-10-19T00:57:24.306Z,1009.29
2016-10-19T00:58:24.312Z,1009.3
2016-10-19T00:59:24.319Z,1009.26
2016-10-19T01:00:24.324Z,1009.28
2016-10-19T01:01:24.384Z,1009.27
2016-10-19T01:02:24.339Z,1009.29
2016-10-19T01:03:24.346Z,1009.26
2016-10-19T01:04:24.353Z,1009.23
2016-10-19T01:05:24.410Z,1009.27
2016-10-19T01:06:24.367Z,1009.29
2016-10-19T01:07:24.375Z,1009.26
2016-10-19T01:08:24.381Z,1009.28
2016-10-19T01:09:24.387Z,1009.27
2016-10-19T01:10:24.444Z,1009.24
2016-10-19T01:11:24.401Z,1009.27
2016-10-19T01:12:24.409Z,1009.2
2016-10-19T01:13:24.416Z,1009.27
2016-10-19T01:14:24.421Z,1009.3
2016-10-19T01:15:24.430Z,1009.26
2016-10-19T01:16:24.436Z,1009.36
2016-10-19T01:17:25.043Z,1009.29
2016-10-19T01:18:24.450Z,1009.36
2016-10-19T01:19:24.455Z,1009.32
2016-10-19T01:20:24.464Z,1009.32
2016-10-19T01:21:24.469Z,1009.37
2016-10-19T01:22:24.476Z,1009.38
2016-10-19T01:23:24.487Z,1009.36
2016-10-19T01:24:24.491Z,1009.43
2016-10-19T01:25:24.498Z,1009.33
2016-10-19T01:26:25.605Z,1009.43
2016-10-19T01:27:24.510Z,1009.28
2016-10-19T01:28:24.518Z,1009.36
2016-10-19T01:29:24.524Z,1009.31
2016-10-19T01:30:24.531Z,1009.29
2016-10-19T01:31:24.540Z,1009.27
2016-10-19T01:32:24.545Z,1009.23
2016-10-19T01:33:24.603Z,1009.21
2016-10-19T01:34:24.559Z,1009.09
2016-10-19T01:35:24.616Z,1009.1
2016-10-19T01:36:24.572Z,1008.98
2016-10-19T01:37:24.579Z,1009
2016-10-19T01:38:24.637Z,1009.01
2016-10-19T01:39:24.644Z,1009.07
2016-10-19T01:40:24.651Z,1009.03
2016-10-19T01:41:25.722Z,1009.01
2016-10-19T01:42:24.664Z,1008.92
2016-10-19T01:43:24.621Z,1008.88
2016-10-19T01:44:24.629Z,1008.95
2016-10-19T01:45:24.633Z,1008.93
2016-10-19T01:46:24.641Z,1008.93
2016-10-19T01:47:24.648Z,1008.93
2016-10-19T01:48:24.655Z,1008.93
2016-10-19T01:49:24.663Z,1008.94
2016-10-19T01:50:24.670Z,1008.96
2016-10-19T01:51:24.675Z,1009.01
2016-10-19T01:52:24.682Z,1009.07
2016-10-19T01:53:24.690Z,1009.07
2016-10-19T01:54:24.695Z,1009.09
2016-10-19T01:55:24.702Z,1009.11
2016-10-19T01:56:24.710Z,1009.14
2016-10-19T01:57:24.717Z,1009.13
2016-10-19T01:58:24.723Z,1009.1
2016-10-19T01:59:24.731Z,1009.04
2016-10-19T02:00:24.737Z,1009.07
2016-10-19T02:01:24.744Z,1009.15
2016-10-19T02:02:24.749Z,1009.13
2016-10-19T02:03:25.515Z,1009.17
2016-10-19T02:04:24.766Z,1009.15
2016-10-19T02:05:24.771Z,1009.14
2016-10-19T02:06:24.778Z,1009.15
2016-10-19T02:07:24.835Z,1009.13
2016-10-19T02:08:24.792Z,1009.13
2016-10-19T02:09:24.799Z,1009.13
2016-10-19T02:10:24.807Z,1009.17
2016-10-19T02:11:24.812Z,1009.11
2016-10-19T02:12:24.820Z,1009.11
2016-10-19T02:13:24.828Z,1009.13
2016-10-19T02:14:24.834Z,1009.09
2016-10-19T02:15:24.841Z,1009.09
2016-10-19T02:16:24.847Z,1009.1
2016-10-19T02:17:24.855Z,1009.01
2016-10-19T02:18:24.862Z,1009.04
2016-10-19T02:19:24.868Z,1009.06
2016-10-19T02:20:24.876Z,1009.02
2016-10-19T02:21:24.883Z,1009.02
2016-10-19T02:22:24.890Z,1009
2016-10-19T02:23:24.897Z,1008.97
2016-10-19T02:24:24.903Z,1008.99
2016-10-19T02:25:25.360Z,1009.06
2016-10-19T02:26:24.917Z,1009.04
2016-10-19T02:27:24.924Z,1009.04
2016-10-19T02:28:24.932Z,1009.03
2016-10-19T02:29:24.987Z,1009.02
2016-10-19T02:30:24.945Z,1009.02
2016-10-19T02:31:24.952Z,1008.98
2016-10-19T02:32:25.009Z,1008.94
2016-10-19T02:33:24.966Z,1008.96
2016-10-19T02:34:24.972Z,1008.93
2016-10-19T02:35:24.979Z,1008.91
2016-10-19T02:36:24.986Z,1008.96
2016-10-19T02:37:24.994Z,1008.88
2016-10-19T02:38:25.001Z,1008.93
2016-10-19T02:39:25.057Z,1008.93
2016-10-19T02:40:25.015Z,1008.93
2016-10-19T02:41:25.020Z,1008.91
2016-10-19T02:42:25.026Z,1008.93
2016-10-19T02:43:25.035Z,1008.97
2016-10-19T02:44:25.041Z,1008.99
2016-10-19T02:45:25.048Z,1008.96
2016-10-19T02:46:25.058Z,1008.98
2016-10-19T02:47:25.114Z,1009.01
2016-10-19T02:48:25.070Z,1008.98
2016-10-19T02:49:25.077Z,1008.98
2016-10-19T02:50:25.083Z,1008.98
2016-10-19T02:51:25.090Z,1009.03
2016-10-19T02:52:25.096Z,1009.01
2016-10-19T02:53:25.103Z,1009.02
2016-10-19T02:54:25.110Z,1009.01
2016-10-19T02:55:25.118Z,1009.07
2016-10-19T02:56:25.174Z,1009.06
2016-10-19T02:57:25.132Z,1009.07
2016-10-19T02:58:25.139Z,1009.05
2016-10-19T02:59:25.146Z,1009.07
2016-10-19T03:00:25.151Z,1009.1
2016-10-19T03:01:25.159Z,1009.08
2016-10-19T03:02:25.167Z,1009.12
2016-10-19T03:03:25.173Z,1009.15
2016-10-19T03:04:25.180Z,1009.19
2016-10-19T03:05:25.188Z,1009.24
2016-10-19T03:06:25.194Z,1009.18
2016-10-19T03:07:25.200Z,1009.16
2016-10-19T03:08:25.208Z,1009.15
2016-10-19T03:09:25.214Z,1009.14
2016-10-19T03:10:25.222Z,1009.13
2016-10-19T03:11:26.379Z,1009.12
2016-10-19T03:12:25.236Z,1009.08
2016-10-19T03:13:25.241Z,1009.08
2016-10-19T03:14:25.250Z,1009.06
2016-10-19T03:15:25.258Z,1009.1
2016-10-19T03:16:25.263Z,1009.05
2016-10-19T03:17:25.277Z,1009.13
2016-10-19T03:18:25.277Z,1009.08
2016-10-19T03:19:25.284Z,1009.04
2016-10-19T03:20:25.342Z,1009.07
2016-10-19T03:21:25.298Z,1009.09
2016-10-19T03:22:25.304Z,1009.07
2016-10-19T03:23:25.363Z,1009.07
2016-10-19T03:24:25.320Z,1009.07
2016-10-19T03:25:25.325Z,1009.03
2016-10-19T03:26:25.333Z,1009.02
2016-10-19T03:27:25.340Z,1009.03
2016-10-19T03:28:25.346Z,1008.98
2016-10-19T03:29:25.352Z,1008.98
2016-10-19T03:30:25.461Z,1008.97
2016-10-19T03:31:25.369Z,1008.98
2016-10-19T03:32:25.425Z,1009.01
2016-10-19T03:33:26.332Z,1008.95
2016-10-19T03:34:25.389Z,1008.88
2016-10-19T03:35:25.394Z,1008.81
2016-10-19T03:36:25.401Z,1008.8
2016-10-19T03:37:25.409Z,1008.85
2016-10-19T03:38:25.416Z,1008.83
2016-10-19T03:39:25.422Z,1008.92
2016-10-19T03:40:25.430Z,1008.95
2016-10-19T03:41:25.438Z,1008.98
2016-10-19T03:42:25.445Z,1008.96
2016-10-19T03:43:25.452Z,1008.92
2016-10-19T03:44:25.459Z,1008.86
2016-10-19T03:45:25.467Z,1008.89
2016-10-19T03:46:25.473Z,1008.86
2016-10-19T03:47:25.480Z,1008.89
2016-10-19T03:48:25.539Z,1008.86
2016-10-19T03:49:25.496Z,1008.83
2016-10-19T03:50:25.551Z,1008.82
2016-10-19T03:51:25.508Z,1008.81
2016-10-19T03:52:25.515Z,1008.8
2016-10-19T03:53:25.522Z,1008.81
2016-10-19T03:54:25.529Z,1008.79
2016-10-19T03:55:25.536Z,1008.73
2016-10-19T03:56:25.543Z,1008.66
2016-10-19T03:57:25.549Z,1008.64
2016-10-19T03:58:25.556Z,1008.66
2016-10-19T03:59:25.564Z,1008.63
2016-10-19T04:00:25.571Z,1008.63
2016-10-19T04:01:25.578Z,1008.71
2016-10-19T04:02:25.634Z,1008.6
2016-10-19T04:03:25.591Z,1008.59
2016-10-19T04:04:25.599Z,1008.56
2016-10-19T04:05:25.604Z,1008.55
2016-10-19T04:06:25.611Z,1008.56
2016-10-19T04:07:25.668Z,1008.57
2016-10-19T04:08:25.776Z,1008.49
2016-10-19T04:09:25.631Z,1008.54
2016-10-19T04:10:25.638Z,1008.5
2016-10-19T04:11:25.645Z,1008.47
2016-10-19T04:12:25.653Z,1008.43
2016-10-19T04:13:25.659Z,1008.42
2016-10-19T04:14:25.667Z,1008.4
2016-10-19T04:15:25.673Z,1008.42
2016-10-19T04:16:25.679Z,1008.41
2016-10-19T04:17:25.686Z,1008.41
2016-10-19T04:18:25.693Z,1008.43
2016-10-19T04:19:25.700Z,1008.42
2016-10-19T04:20:25.706Z,1008.43
2016-10-19T04:21:25.762Z,1008.41
2016-10-19T04:22:25.720Z,1008.4
2016-10-19T04:23:25.727Z,1008.48
2016-10-19T04:24:25.735Z,1008.46
2016-10-19T04:25:25.740Z,1008.43
2016-10-19T04:26:25.747Z,1008.43
2016-10-19T04:27:25.754Z,1008.47
2016-10-19T04:28:25.811Z,1008.5
2016-10-19T04:29:25.767Z,1008.48
2016-10-19T04:30:25.775Z,1008.46
2016-10-19T04:31:25.782Z,1008.51
2016-10-19T04:32:25.789Z,1008.5
2016-10-19T04:33:25.796Z,1008.5
2016-10-19T04:34:25.802Z,1008.47
2016-10-19T04:35:25.808Z,1008.48
2016-10-19T04:36:25.815Z,1008.46
2016-10-19T04:37:25.823Z,1008.45
2016-10-19T04:38:25.829Z,1008.39
2016-10-19T04:39:25.835Z,1008.44
2016-10-19T04:40:25.843Z,1008.41
2016-10-19T04:41:25.851Z,1008.42
2016-10-19T04:42:25.856Z,1008.38
2016-10-19T04:43:25.912Z,1008.36
2016-10-19T04:44:25.871Z,1008.36
2016-10-19T04:45:25.881Z,1008.34
2016-10-19T04:46:25.884Z,1008.34
2016-10-19T04:47:25.891Z,1008.39
2016-10-19T04:48:25.898Z,1008.39
2016-10-19T04:49:25.905Z,1008.35
2016-10-19T04:50:25.911Z,1008.33
2016-10-19T04:51:25.919Z,1008.29
2016-10-19T04:52:25.926Z,1008.29
2016-10-19T04:53:25.932Z,1008.29
2016-10-19T04:54:26.360Z,1008.35
2016-10-19T04:55:25.945Z,1008.35
2016-10-19T04:56:25.955Z,1008.34
2016-10-19T04:57:25.957Z,1008.27
2016-10-19T04:58:26.015Z,1008.22
2016-10-19T04:59:26.022Z,1008.19
2016-10-19T05:00:25.979Z,1008.15
2016-10-19T05:01:25.987Z,1008.13
2016-10-19T05:02:25.993Z,1008.12
2016-10-19T05:03:26.001Z,1008.11
2016-10-19T05:04:26.056Z,1008.21
2016-10-19T05:05:26.014Z,1008.11
2016-10-19T05:06:26.021Z,1008.16
2016-10-19T05:07:26.029Z,1008.14
2016-10-19T05:08:26.036Z,1008.15
2016-10-19T05:09:26.042Z,1008.09
2016-10-19T05:10:26.050Z,1008.11
2016-10-19T05:11:26.055Z,1008.09
2016-10-19T05:12:26.062Z,1008.07
2016-10-19T05:13:26.070Z,1007.98
2016-10-19T05:14:26.076Z,1008.02
2016-10-19T05:15:26.084Z,1008.01
2016-10-19T05:16:26.089Z,1008.03
2016-10-19T05:17:26.121Z,1008.04
2016-10-19T05:18:27.255Z,1008.07
2016-10-19T05:19:26.113Z,1008.02
2016-10-19T05:20:26.119Z,1007.98
2016-10-19T05:21:26.126Z,1007.95
2016-10-19T05:22:26.131Z,1007.95
2016-10-19T05:23:26.138Z,1007.95
2016-10-19T05:24:26.145Z,1007.97
2016-10-19T05:25:26.404Z,1007.95
2016-10-19T05:26:26.160Z,1007.97
2016-10-19T05:27:26.168Z,1007.98
2016-10-19T05:28:26.532Z,1007.93
2016-10-19T05:29:26.180Z,1007.92
2016-10-19T05:30:26.187Z,1007.96
2016-10-19T05:31:26.192Z,1007.92
2016-10-19T05:32:26.202Z,1007.91
2016-10-19T05:33:26.208Z,1007.95
2016-10-19T05:34:26.215Z,1007.95
2016-10-19T05:35:26.221Z,1007.91
2016-10-19T05:36:26.230Z,1007.92
2016-10-19T05:37:26.236Z,1007.91
2016-10-19T05:38:26.242Z,1007.96
2016-10-19T05:39:26.297Z,1007.92
2016-10-19T05:40:27.406Z,1007.96
2016-10-19T05:41:26.262Z,1007.92
2016-10-19T05:42:26.267Z,1007.9
2016-10-19T05:43:26.275Z,1007.9
2016-10-19T05:44:26.281Z,1007.87
2016-10-19T05:45:26.289Z,1007.9
2016-10-19T05:46:26.346Z,1007.93
2016-10-19T05:47:26.303Z,1007.88
2016-10-19T05:48:26.308Z,1007.86
2016-10-19T05:49:26.314Z,1007.85
2016-10-19T05:50:26.323Z,1007.89
2016-10-19T05:51:26.330Z,1007.84
2016-10-19T05:52:26.337Z,1007.83
2016-10-19T05:53:26.494Z,1007.78
2016-10-19T05:54:26.401Z,1007.8
2016-10-19T05:55:26.356Z,1007.84
2016-10-19T05:56:26.362Z,1007.82
2016-10-19T05:57:26.371Z,1007.8
2016-10-19T05:58:26.378Z,1007.74
2016-10-19T05:59:26.385Z,1007.76
2016-10-19T06:00:26.391Z,1007.8
2016-10-19T06:01:26.398Z,1007.77
2016-10-19T06:02:27.507Z,1007.78
2016-10-19T06:03:26.412Z,1007.78
2016-10-19T06:04:26.417Z,1007.8
2016-10-19T06:05:26.424Z,1007.81
2016-10-19T06:06:26.430Z,1007.86
2016-10-19T06:07:26.437Z,1007.87
2016-10-19T06:08:26.443Z,1007.84
2016-10-19T06:09:26.451Z,1007.84
2016-10-19T06:10:26.507Z,1007.82
2016-10-19T06:11:26.465Z,1007.8
2016-10-19T06:12:26.473Z,1007.86
2016-10-19T06:13:26.528Z,1007.8
2016-10-19T06:14:26.484Z,1007.87
2016-10-19T06:15:26.491Z,1007.85
2016-10-19T06:16:26.499Z,1007.8
2016-10-19T06:17:26.504Z,1007.73
2016-10-19T06:18:26.511Z,1007.73
2016-10-19T06:19:26.519Z,1007.65
2016-10-19T06:20:26.525Z,1007.69
2016-10-19T06:21:26.530Z,1007.68
2016-10-19T06:22:26.537Z,1007.71
2016-10-19T06:23:26.545Z,1007.58
2016-10-19T06:24:27.052Z,1007.6
2016-10-19T06:25:26.609Z,1007.62
2016-10-19T06:26:26.565Z,1007.56
2016-10-19T06:27:26.624Z,1007.51
2016-10-19T06:28:26.580Z,1007.51
2016-10-19T06:29:26.587Z,1007.52
2016-10-19T06:30:26.593Z,1007.44
2016-10-19T06:31:26.601Z,1007.45
2016-10-19T06:32:26.606Z,1007.46
2016-10-19T06:33:26.615Z,1007.43
2016-10-19T06:34:26.620Z,1007.42
2016-10-19T06:35:26.627Z,1007.38
2016-10-19T06:36:26.633Z,1007.36
2016-10-19T06:37:26.641Z,1007.44
2016-10-19T06:38:26.647Z,1007.42
2016-10-19T06:39:27.004Z,1007.39
2016-10-19T06:40:26.660Z,1007.33
2016-10-19T06:41:26.667Z,1007.39
2016-10-19T06:42:26.724Z,1007.39
2016-10-19T06:43:26.680Z,1007.31
2016-10-19T06:44:26.687Z,1007.36
2016-10-19T06:45:26.695Z,1007.37
2016-10-19T06:46:26.700Z,1007.4
2016-10-19T06:47:26.708Z,1007.32
2016-10-19T06:48:26.715Z,1007.34
2016-10-19T06:49:26.723Z,1007.28
2016-10-19T06:50:26.778Z,1007.33
2016-10-19T06:51:26.735Z,1007.35
2016-10-19T06:52:26.742Z,1007.26
2016-10-19T06:53:26.749Z,1007.26
2016-10-19T06:54:26.756Z,1007.28
2016-10-19T06:55:26.763Z,1007.27
2016-10-19T06:56:26.770Z,1007.25
2016-10-19T06:57:26.776Z,1007.21
2016-10-19T06:58:26.781Z,1007.2
2016-10-19T06:59:26.790Z,1007.23
2016-10-19T07:00:26.797Z,1007.08
2016-10-19T07:01:27.004Z,1007.15
2016-10-19T07:02:26.811Z,1007.09
2016-10-19T07:03:26.819Z,1007.08
2016-10-19T07:04:26.824Z,1007.16
2016-10-19T07:05:26.831Z,1007.14
2016-10-19T07:06:26.838Z,1007.03
2016-10-19T07:07:26.845Z,1007.03
2016-10-19T07:08:26.850Z,1007.08
2016-10-19T07:09:26.857Z,1007
2016-10-19T07:10:26.864Z,1007.01
2016-10-19T07:11:26.872Z,1006.98
2016-10-19T07:12:26.876Z,1006.99
2016-10-19T07:13:26.933Z,1006.97
2016-10-19T07:14:26.891Z,1006.93
2016-10-19T07:15:26.896Z,1006.89
2016-10-19T07:16:26.905Z,1006.97
2016-10-19T07:17:26.911Z,1006.86
2016-10-19T07:18:26.967Z,1006.83
2016-10-19T07:19:27.173Z,1006.73
2016-10-19T07:20:26.982Z,1006.66
2016-10-19T07:21:26.938Z,1006.6
2016-10-19T07:22:26.944Z,1006.61
2016-10-19T07:23:26.952Z,1006.61
2016-10-19T07:24:27.009Z,1006.53
2016-10-19T07:25:26.967Z,1006.52
2016-10-19T07:26:26.970Z,1006.49
2016-10-19T07:27:26.978Z,1006.45
2016-10-19T07:28:27.259Z,1006.38
2016-10-19T07:29:26.993Z,1006.29
2016-10-19T07:30:26.999Z,1006.32
2016-10-19T07:31:27.006Z,1006.12
2016-10-19T07:32:27.062Z,1006.04
2016-10-19T07:33:27.019Z,1005.96
2016-10-19T07:34:27.024Z,1005.92
2016-10-19T07:35:27.032Z,1005.86
2016-10-19T07:36:27.039Z,1005.88
2016-10-19T07:37:27.044Z,1005.73
2016-10-19T07:38:27.051Z,1005.7
2016-10-19T07:39:27.059Z,1005.7
2016-10-19T07:40:27.065Z,1005.7
2016-10-19T07:41:27.072Z,1005.66
2016-10-19T07:42:27.078Z,1005.68
2016-10-19T07:43:27.135Z,1005.65
2016-10-19T07:44:27.092Z,1005.7
2016-10-19T07:45:27.098Z,1005.54
2016-10-19T07:46:27.104Z,1005.54
2016-10-19T07:47:28.294Z,1005.63
2016-10-19T07:48:27.118Z,1005.7
2016-10-19T07:49:27.125Z,1005.74
2016-10-19T07:50:27.133Z,1005.72
2016-10-19T07:51:27.139Z,1005.69
2016-10-19T07:52:27.145Z,1005.65
2016-10-19T07:53:27.202Z,1005.69
2016-10-19T07:54:27.159Z,1005.58
2016-10-19T07:55:27.166Z,1005.67
2016-10-19T07:56:27.172Z,1005.47
2016-10-19T07:57:27.227Z,1005.42
2016-10-19T07:58:27.186Z,1005.4
2016-10-19T07:59:27.192Z,1005.54
2016-10-19T08:00:27.200Z,1005.39
2016-10-19T08:01:27.207Z,1005.43
2016-10-19T08:02:27.214Z,1005.26
2016-10-19T08:03:27.272Z,1005.31
2016-10-19T08:04:27.226Z,1005.22
2016-10-19T08:05:27.234Z,1005.15
2016-10-19T08:06:27.240Z,1005.22
2016-10-19T08:07:27.248Z,1005.14
2016-10-19T08:08:27.255Z,1005.16
2016-10-19T08:09:28.402Z,1005.16
2016-10-19T08:10:27.268Z,1005.21
2016-10-19T08:11:27.273Z,1005.19
2016-10-19T08:12:27.282Z,1005.17
2016-10-19T08:13:27.290Z,1005.14
2016-10-19T08:14:27.295Z,1005.24
2016-10-19T08:15:27.302Z,1005.22
2016-10-19T08:16:27.308Z,1005.13
2016-10-19T08:17:27.315Z,1005.2
2016-10-19T08:18:27.372Z,1005.38
2016-10-19T08:19:27.378Z,1005.3
2016-10-19T08:20:27.336Z,1005.14
2016-10-19T08:21:27.342Z,1005.23
2016-10-19T08:22:27.408Z,1005.27
2016-10-19T08:23:27.356Z,1005.54
2016-10-19T08:24:27.364Z,1005.38
2016-10-19T08:25:27.370Z,1005.3
2016-10-19T08:26:27.377Z,1005.36
2016-10-19T08:27:27.434Z,1005.32
2016-10-19T08:28:27.391Z,1005.32
2016-10-19T08:29:27.398Z,1005.19
2016-10-19T08:30:27.406Z,1005.17
2016-10-19T08:31:28.363Z,1005.27
2016-10-19T08:32:27.419Z,1005.25
2016-10-19T08:33:27.475Z,1005.36
2016-10-19T08:34:27.433Z,1005.18
2016-10-19T08:35:27.442Z,1005.1
2016-10-19T08:36:27.446Z,1005.35
2016-10-19T08:37:27.454Z,1005.27
2016-10-19T08:38:27.461Z,1005.2
2016-10-19T08:39:27.468Z,1005.2
2016-10-19T08:40:27.474Z,1005.17
2016-10-19T08:41:27.483Z,1005.08
2016-10-19T08:42:27.487Z,1005.13
2016-10-19T08:43:27.494Z,1005.04
2016-10-19T08:44:27.504Z,1005.16
2016-10-19T08:45:27.510Z,1005.01
2016-10-19T08:46:27.517Z,1005
2016-10-19T08:47:27.522Z,1005.13
2016-10-19T08:48:27.531Z,1005.05
2016-10-19T08:49:27.536Z,1005.02
2016-10-19T08:50:27.543Z,1005.02
2016-10-19T08:51:27.602Z,1005.14
2016-10-19T08:52:27.558Z,1005.12
2016-10-19T08:53:28.166Z,1005.12
2016-10-19T08:54:27.571Z,1005.06
2016-10-19T08:55:27.579Z,1005.05
2016-10-19T08:56:27.636Z,1005.17
2016-10-19T08:57:27.595Z,1005
2016-10-19T08:58:27.600Z,1004.98
2016-10-19T08:59:27.607Z,1005.09
2016-10-19T09:00:27.615Z,1004.86
2016-10-19T09:01:27.620Z,1004.9
2016-10-19T09:02:27.630Z,1005.03
2016-10-19T09:03:27.685Z,1004.9
2016-10-19T09:04:27.642Z,1004.96
2016-10-19T09:05:27.699Z,1004.93
2016-10-19T09:06:27.656Z,1004.96
2016-10-19T09:07:27.664Z,1004.96
2016-10-19T09:08:28.021Z,1004.95
2016-10-19T09:09:27.677Z,1004.83
2016-10-19T09:10:27.684Z,1004.78
2016-10-19T09:11:27.691Z,1004.94
2016-10-19T09:12:27.698Z,1004.86
2016-10-19T09:13:27.703Z,1004.87
2016-10-19T09:14:27.712Z,1004.79
2016-10-19T09:15:27.719Z,1004.72
2016-10-19T09:16:27.725Z,1004.7
2016-10-19T09:17:27.732Z,1004.76
2016-10-19T09:18:27.740Z,1004.68
2016-10-19T09:19:27.798Z,1004.71
2016-10-19T09:20:27.753Z,1004.74
2016-10-19T09:21:27.811Z,1004.8
2016-10-19T09:22:27.768Z,1004.71
2016-10-19T09:23:27.827Z,1004.75
2016-10-19T09:24:27.802Z,1004.73
2016-10-19T09:25:27.791Z,1004.73
2016-10-19T09:26:27.797Z,1004.75
2016-10-19T09:27:27.804Z,1004.7
2016-10-19T09:28:27.812Z,1004.73
2016-10-19T09:29:27.920Z,1004.64
2016-10-19T09:30:27.878Z,1004.7
2016-10-19T09:31:27.835Z,1004.66
2016-10-19T09:32:27.840Z,1004.63
2016-10-19T09:33:27.849Z,1004.66
2016-10-19T09:34:27.854Z,1004.65
2016-10-19T09:35:27.861Z,1004.56
2016-10-19T09:36:27.920Z,1004.55
2016-10-19T09:37:27.927Z,1004.51
2016-10-19T09:38:27.933Z,1004.57
2016-10-19T09:39:29.043Z,1004.48
2016-10-19T09:40:27.949Z,1004.54
2016-10-19T09:41:27.906Z,1004.55
2016-10-19T09:42:27.914Z,1004.59
2016-10-19T09:43:35.244Z,1004.47
2016-10-19T09:44:27.928Z,1004.44
2016-10-19T09:45:27.933Z,1004.44
2016-10-19T09:46:27.942Z,1004.38
2016-10-19T09:47:27.949Z,1004.42
2016-10-19T09:48:27.958Z,1004.43
2016-10-19T09:49:27.963Z,1004.41
2016-10-19T09:50:27.970Z,1004.4
2016-10-19T09:51:27.978Z,1004.37
2016-10-19T09:52:27.986Z,1004.28
2016-10-19T09:53:28.042Z,1004.22
2016-10-19T09:54:29.151Z,1004.18
2016-10-19T09:55:28.006Z,1004.25
2016-10-19T09:56:28.014Z,1004.18
2016-10-19T09:57:28.020Z,1004.26
2016-10-19T09:58:28.027Z,1004.21
2016-10-19T09:59:28.086Z,1004.21
2016-10-19T10:00:28.091Z,1004.18
2016-10-19T10:01:28.049Z,1004.08
2016-10-19T10:02:28.057Z,1004.07
2016-10-19T10:03:28.065Z,1004.16
2016-10-19T10:04:28.072Z,1004.13
2016-10-19T10:05:28.080Z,1004.2
2016-10-19T10:06:28.089Z,1004.1
2016-10-19T10:07:28.143Z,1004.11
2016-10-19T10:08:28.101Z,1003.96
2016-10-19T10:09:28.160Z,1004
2016-10-19T10:10:28.117Z,1003.98
2016-10-19T10:11:28.124Z,1003.9
2016-10-19T10:12:28.132Z,1003.92
2016-10-19T10:13:28.189Z,1004.04
2016-10-19T10:14:28.146Z,1003.93
2016-10-19T10:15:28.204Z,1004.03
2016-10-19T10:16:29.066Z,1003.87
2016-10-19T10:17:28.169Z,1003.96
2016-10-19T10:18:28.226Z,1003.89
2016-10-19T10:19:28.184Z,1003.77
2016-10-19T10:20:28.192Z,1003.9
2016-10-19T10:21:28.199Z,1003.75
2016-10-19T10:22:28.206Z,1003.7
2016-10-19T10:23:28.215Z,1003.73
2016-10-19T10:24:28.220Z,1003.6
2016-10-19T10:25:28.228Z,1003.71
2016-10-19T10:26:28.236Z,1003.72
2016-10-19T10:27:28.243Z,1003.72
2016-10-19T10:28:28.251Z,1003.92
2016-10-19T10:29:28.258Z,1003.79
2016-10-19T10:30:28.267Z,1003.84
2016-10-19T10:31:28.273Z,1003.85
2016-10-19T10:32:28.281Z,1003.97
2016-10-19T10:33:28.288Z,1003.83
2016-10-19T10:34:28.297Z,1003.78
2016-10-19T10:35:28.356Z,1003.72
2016-10-19T10:36:28.310Z,1003.83
2016-10-19T10:37:28.318Z,1003.65
2016-10-19T10:38:29.226Z,1003.63
2016-10-19T10:39:28.334Z,1003.62
2016-10-19T10:40:28.342Z,1003.63
2016-10-19T10:41:28.348Z,1003.61
2016-10-19T10:42:28.356Z,1003.64
2016-10-19T10:43:28.364Z,1003.6
2016-10-19T10:44:28.372Z,1003.64
2016-10-19T10:45:28.390Z,1003.64
2016-10-19T10:46:28.386Z,1003.63
2016-10-19T10:47:28.393Z,1003.54
2016-10-19T10:48:28.401Z,1003.57
2016-10-19T10:49:28.408Z,1003.59
2016-10-19T10:50:28.418Z,1003.47
2016-10-19T10:51:28.424Z,1003.49
2016-10-19T10:52:28.431Z,1003.51
2016-10-19T10:53:28.439Z,1003.43
2016-10-19T10:54:28.497Z,1003.43
2016-10-19T10:55:28.503Z,1003.38
2016-10-19T10:56:28.461Z,1003.48
2016-10-19T10:57:28.519Z,1003.45
2016-10-19T10:58:28.475Z,1003.39
2016-10-19T10:59:28.482Z,1003.39
2016-10-19T11:00:29.343Z,1003.36
2016-10-19T11:01:28.499Z,1003.42
2016-10-19T11:02:28.508Z,1003.46
2016-10-19T11:03:28.513Z,1003.37
2016-10-19T11:04:28.621Z,1003.41
2016-10-19T11:05:28.529Z,1003.4
2016-10-19T11:06:28.536Z,1003.33
2016-10-19T11:07:28.544Z,1003.28
2016-10-19T11:08:28.551Z,1003.45
2016-10-19T11:09:28.560Z,1003.33
2016-10-19T11:10:28.567Z,1003.31
2016-10-19T11:11:28.575Z,1003.32
2016-10-19T11:12:28.582Z,1003.3
2016-10-19T11:13:28.639Z,1003.28
2016-10-19T11:14:28.598Z,1003.33
2016-10-19T11:15:28.605Z,1003.29
2016-10-19T11:16:28.613Z,1003.26
2016-10-19T11:17:28.622Z,1003.19
2016-10-19T11:18:28.629Z,1003.18
2016-10-19T11:19:28.636Z,1003.2
2016-10-19T11:20:28.645Z,1003.17
2016-10-19T11:21:28.650Z,1003.12
2016-10-19T11:22:29.210Z,1003.19
2016-10-19T11:23:28.670Z,1003.13
2016-10-19T11:24:28.690Z,1003.16
2016-10-19T11:25:28.684Z,1003.13
2016-10-19T11:26:28.691Z,1003.13
2016-10-19T11:27:28.703Z,1003.05
2016-10-19T11:28:28.757Z,1003.05
2016-10-19T11:29:28.715Z,1003.15
2016-10-19T11:30:28.723Z,1003
2016-10-19T11:31:28.730Z,1003.07
2016-10-19T11:32:28.738Z,1003.1
2016-10-19T11:33:28.746Z,1003.03
2016-10-19T11:34:28.755Z,1003.01
2016-10-19T11:35:28.762Z,1003.03
2016-10-19T11:36:28.771Z,1003.02
2016-10-19T11:37:29.130Z,1003.08
2016-10-19T11:38:28.836Z,1003.11
2016-10-19T11:39:28.843Z,1003.05
2016-10-19T11:40:28.803Z,1002.94
2016-10-19T11:41:28.810Z,1002.98
2016-10-19T11:42:28.817Z,1002.86
2016-10-19T11:43:28.875Z,1002.87
2016-10-19T11:44:28.833Z,1002.85
2016-10-19T11:45:28.841Z,1002.77
2016-10-19T11:46:28.848Z,1002.83
2016-10-19T11:47:28.855Z,1002.82
2016-10-19T11:48:28.864Z,1002.78
2016-10-19T11:49:28.944Z,1002.87
2016-10-19T11:50:28.878Z,1002.94
2016-10-19T11:51:28.957Z,1002.87
2016-10-19T11:52:28.897Z,1002.76
2016-10-19T11:53:28.902Z,1002.82
2016-10-19T11:54:28.910Z,1002.89
2016-10-19T11:55:28.918Z,1002.8
2016-10-19T11:56:28.926Z,1002.71
2016-10-19T11:57:28.934Z,1002.8
2016-10-19T11:58:28.942Z,1002.79
2016-10-19T11:59:29.400Z,1002.7
2016-10-19T12:00:29.006Z,1002.79
2016-10-19T12:01:28.964Z,1002.69
2016-10-19T12:02:28.972Z,1002.71
2016-10-19T12:03:28.981Z,1002.83
2016-10-19T12:04:28.987Z,1002.72
2016-10-19T12:05:28.995Z,1002.61
2016-10-19T12:06:29.004Z,1002.72
2016-10-19T12:07:29.022Z,1002.85
2016-10-19T12:08:29.023Z,1002.83